createdAt,value
2023-04-29T00:01:59.925Z,10.20
2023-04-29T00:05:05.189Z,10.09
2023-04-29T00:08:09.964Z,10.11
2023-04-29T00:11:13.341Z,10.19
2023-04-29T00:14:16.880Z,10.04
2023-04-29T00:17:20.019Z,10.06
2023-04-29T00:20:23.265Z,9.92
2023-04-29T00:23:27.738Z,9.91
2023-04-29T00:26:31.078Z,10.08
2023-04-29T00:29:35.148Z,9.82
2023-04-29T00:32:38.307Z,9.76
2023-04-29T00:35:41.530Z,9.76
2023-04-29T00:38:45.978Z,9.65
2023-04-29T00:41:49.182Z,9.91
2023-04-29T00:44:52.329Z,9.70
2023-04-29T00:47:56.031Z,9.66
2023-04-29T00:51:00.038Z,9.63
2023-04-29T00:54:05.419Z,9.62
2023-04-29T00:57:09.685Z,9.75
2023-04-29T01:00:14.418Z,9.55
2023-04-29T01:03:23.416Z,9.48
2023-04-29T01:06:37.054Z,9.49
2023-04-29T01:09:53.716Z,9.54
2023-04-29T01:13:03.755Z,9.41
2023-04-29T01:16:12.378Z,9.50
2023-04-29T01:19:24.293Z,9.49
2023-04-29T01:22:27.557Z,9.31
2023-04-29T01:25:32.294Z,9.62
2023-04-29T01:29:19.586Z,9.40
2023-04-29T01:32:31.142Z,9.22
2023-04-29T01:35:47.108Z,9.28
2023-04-29T01:39:08.159Z,9.30
2023-04-29T01:42:22.683Z,9.28
2023-04-29T01:45:28.668Z,9.25
2023-04-29T01:48:32.179Z,9.41
2023-04-29T01:51:35.401Z,9.93
2023-04-29T01:54:38.756Z,9.43
2023-04-29T01:57:44.277Z,9.28
2023-04-29T02:01:06.910Z,9.75
2023-04-29T02:04:12.230Z,9.33
2023-04-29T02:07:15.829Z,9.27
2023-04-29T02:10:19.567Z,9.60
2023-04-29T02:13:26.826Z,9.62
2023-04-29T02:16:30.837Z,9.58
2023-04-29T02:19:40.195Z,9.48
2023-04-29T02:22:43.380Z,9.58
2023-04-29T02:25:46.623Z,9.63
2023-04-29T02:28:52.492Z,9.37
2023-04-29T02:31:57.537Z,9.77
2023-04-29T02:35:00.924Z,9.37
2023-04-29T02:38:04.970Z,9.21
2023-04-29T02:41:08.218Z,9.20
2023-04-29T02:44:12.680Z,9.28
2023-04-29T02:47:15.809Z,9.42
2023-04-29T02:50:19.428Z,9.50
2023-04-29T02:53:23.334Z,9.35
2023-04-29T02:56:26.692Z,9.30
2023-04-29T02:59:31.342Z,9.37
2023-04-29T03:02:34.638Z,10.09
2023-04-29T03:05:38.014Z,9.38
2023-04-29T03:08:41.243Z,9.51
2023-04-29T03:11:44.357Z,9.40
2023-04-29T03:14:49.222Z,9.42
2023-04-29T03:17:52.580Z,9.52
2023-04-29T03:20:55.759Z,9.70
2023-04-29T03:23:58.879Z,9.55
2023-04-29T03:27:08.746Z,9.47
2023-04-29T03:30:13.600Z,9.43
2023-04-29T03:34:49.590Z,9.47
2023-04-29T03:38:19.223Z,9.47
2023-04-29T03:41:24.330Z,9.40
2023-04-29T03:44:29.154Z,9.40
2023-04-29T03:47:32.453Z,9.43
2023-04-29T03:50:38.496Z,9.34
2023-04-29T03:53:41.822Z,9.36
2023-04-29T03:56:45.070Z,9.70
2023-04-29T03:59:50.591Z,9.75
2023-04-29T04:02:54.362Z,9.43
2023-04-29T04:05:59.394Z,9.75
2023-04-29T04:09:02.591Z,9.55
2023-04-29T04:12:07.922Z,9.49
2023-04-29T04:15:11.525Z,9.49
2023-04-29T04:18:14.772Z,9.46
2023-04-29T04:21:19.271Z,9.53
2023-04-29T04:24:30.434Z,9.73
2023-04-29T04:27:33.804Z,9.47
2023-04-29T04:30:41.044Z,9.47
2023-04-29T04:33:44.376Z,9.52
2023-04-29T04:36:49.496Z,9.58
2023-04-29T04:39:52.943Z,9.55
2023-04-29T04:42:56.692Z,9.59
2023-04-29T04:46:00.324Z,9.42
2023-04-29T04:49:04.494Z,9.71
2023-04-29T04:52:11.795Z,9.71
2023-04-29T04:55:15.244Z,9.92
2023-04-29T04:58:21.240Z,9.76
2023-04-29T05:01:25.961Z,9.93
2023-04-29T05:04:29.417Z,10.05
2023-04-29T05:07:35.804Z,10.05
2023-04-29T05:10:41.066Z,10.10
2023-04-29T05:13:45.462Z,10.56
2023-04-29T05:16:48.808Z,10.38
2023-04-29T05:19:52.554Z,10.46
2023-04-29T05:22:57.677Z,10.37
2023-04-29T05:26:01.962Z,10.71
2023-04-29T05:29:05.359Z,10.59
2023-04-29T05:32:15.368Z,10.70
2023-04-29T05:35:18.600Z,10.45
2023-04-29T05:38:29.074Z,10.70
2023-04-29T05:41:39.016Z,10.97
2023-04-29T05:45:05.732Z,10.90
2023-04-29T05:48:09.379Z,11.08
2023-04-29T05:51:13.621Z,11.18
2023-04-29T05:54:18.313Z,11.08
2023-04-29T05:57:22.540Z,11.08
2023-04-29T06:00:25.740Z,11.19
2023-04-29T06:03:35.881Z,11.17
2023-04-29T06:06:59.419Z,11.51
2023-04-29T06:10:24.127Z,11.54
2023-04-29T06:13:27.282Z,11.66
2023-04-29T06:16:31.089Z,11.64
2023-04-29T06:19:34.341Z,11.69
2023-04-29T06:22:37.518Z,11.89
2023-04-29T06:25:42.082Z,11.69
2023-04-29T06:28:46.335Z,11.58
2023-04-29T06:31:49.666Z,11.65
2023-04-29T06:34:53.502Z,11.61
2023-04-29T06:38:14.352Z,11.58
2023-04-29T06:41:53.823Z,11.54
2023-04-29T06:45:29.625Z,11.49
2023-04-29T06:48:42.855Z,11.71
2023-04-29T06:51:46.207Z,11.63
2023-04-29T06:54:49.372Z,11.82
2023-04-29T06:57:58.426Z,11.79
2023-04-29T07:01:03.439Z,11.85
2023-04-29T07:04:06.860Z,12.08
2023-04-29T07:07:10.512Z,12.05
2023-04-29T07:10:13.823Z,11.93
2023-04-29T07:13:18.398Z,11.96
2023-04-29T07:16:22.081Z,11.91
2023-04-29T07:19:26.030Z,11.86
2023-04-29T07:22:29.276Z,11.82
2023-04-29T07:25:33.240Z,11.81
2023-04-29T07:28:38.097Z,11.72
2023-04-29T07:31:41.463Z,11.70
2023-04-29T07:34:44.788Z,11.65
2023-04-29T07:37:48.260Z,11.67
2023-04-29T07:40:51.541Z,11.67
2023-04-29T07:43:56.899Z,11.90
2023-04-29T07:47:00.157Z,12.10
2023-04-29T07:50:05.077Z,12.12
2023-04-29T07:53:08.698Z,12.05
2023-04-29T07:56:12.423Z,12.38
2023-04-29T07:59:17.715Z,12.28
2023-04-29T08:02:21.973Z,12.42
2023-04-29T08:05:26.890Z,12.48
2023-04-29T08:08:31.318Z,12.62
2023-04-29T08:11:34.654Z,12.97
2023-04-29T08:14:39.327Z,13.16
2023-04-29T08:17:42.578Z,13.03
2023-04-29T08:20:45.873Z,13.01
2023-04-29T08:23:48.984Z,13.14
2023-04-29T08:26:52.483Z,13.09
2023-04-29T08:29:57.507Z,12.95
2023-04-29T08:33:01.100Z,12.89
2023-04-29T08:36:04.709Z,12.60
2023-04-29T08:39:07.831Z,12.49
2023-04-29T08:42:11.406Z,12.54
2023-04-29T08:45:17.353Z,12.35
2023-04-29T08:48:20.922Z,12.35
2023-04-29T08:51:24.202Z,12.24
2023-04-29T08:54:28.281Z,12.16
2023-04-29T08:57:32.229Z,12.27
2023-04-29T09:00:37.824Z,12.44
2023-04-29T09:03:46.230Z,12.47
2023-04-29T09:06:49.709Z,12.66
2023-04-29T09:09:54.964Z,13.27
2023-04-29T09:12:58.606Z,13.47
2023-04-29T09:16:03.243Z,13.62
2023-04-29T09:19:06.488Z,13.62
2023-04-29T09:22:09.969Z,13.66
2023-04-29T09:25:13.585Z,13.34
2023-04-29T09:28:17.669Z,13.61
2023-04-29T09:34:50.317Z,13.22
2023-04-29T09:37:54.779Z,13.39
2023-04-29T09:40:59.898Z,13.11
2023-04-29T09:44:06.503Z,13.39
2023-04-29T09:47:10.945Z,13.33
2023-04-29T09:50:16.571Z,13.32
2023-04-29T09:53:30.361Z,13.57
2023-04-29T09:56:50.170Z,13.64
2023-04-29T09:59:53.341Z,14.06
2023-04-29T10:03:00.552Z,14.38
2023-04-29T10:06:07.057Z,14.60
2023-04-29T10:09:15.996Z,14.55
2023-04-29T10:12:20.633Z,14.56
2023-04-29T10:15:30.104Z,14.18
2023-04-29T10:18:38.201Z,14.16
2023-04-29T10:21:42.955Z,14.10
2023-04-29T10:24:47.850Z,13.89
2023-04-29T10:27:53.604Z,13.82
2023-04-29T10:30:58.962Z,13.82
2023-04-29T10:34:02.181Z,13.91
2023-04-29T10:37:07.629Z,13.79
2023-04-29T10:40:16.082Z,14.16
2023-04-29T10:43:24.597Z,13.89
2023-04-29T10:46:28.500Z,13.71
2023-04-29T10:49:35.766Z,13.95
2023-04-29T10:52:55.752Z,14.07
2023-04-29T10:56:01.061Z,14.07
2023-04-29T10:59:04.440Z,13.74
2023-04-29T11:02:08.852Z,13.98
2023-04-29T11:05:14.054Z,14.15
2023-04-29T11:08:23.870Z,14.16
2023-04-29T11:11:28.596Z,13.65
2023-04-29T11:14:33.804Z,13.64
2023-04-29T11:17:38.608Z,13.58
2023-04-29T11:21:11.934Z,13.62
2023-04-29T11:24:17.490Z,13.60
2023-04-29T11:27:22.966Z,13.70
2023-04-29T11:30:29.633Z,13.65
2023-04-29T11:33:33.824Z,13.78
2023-04-29T11:36:37.651Z,13.52
2023-04-29T11:39:42.252Z,13.79
2023-04-29T11:42:47.273Z,13.73
2023-04-29T11:45:51.655Z,13.98
2023-04-29T11:48:54.817Z,13.69
2023-04-29T11:51:58.493Z,13.48
2023-04-29T11:55:03.624Z,13.43
2023-04-29T11:58:06.928Z,13.51
2023-04-29T12:01:10.148Z,13.87
2023-04-29T12:04:13.671Z,13.84
2023-04-29T12:07:17.813Z,13.73
2023-04-29T12:10:22.496Z,13.84
2023-04-29T12:13:28.415Z,13.84
2023-04-29T12:16:32.353Z,13.74
2023-04-29T12:19:37.340Z,13.70
2023-04-29T12:22:40.666Z,13.93
2023-04-29T12:25:49.849Z,13.69
2023-04-29T12:28:55.474Z,13.42
2023-04-29T12:31:58.686Z,13.47
2023-04-29T12:35:01.899Z,13.27
2023-04-29T12:38:05.294Z,13.42
2023-04-29T12:41:10.818Z,13.53
2023-04-29T12:44:14.025Z,13.40
2023-04-29T12:47:17.899Z,13.45
2023-04-29T12:50:21.108Z,13.37
2023-04-29T12:53:24.443Z,13.30
2023-04-29T12:56:28.962Z,13.22
2023-04-29T12:59:32.074Z,13.06
2023-04-29T13:02:36.615Z,13.31
2023-04-29T13:05:40.707Z,13.27
2023-04-29T13:08:43.904Z,13.20
2023-04-29T13:11:48.395Z,13.29
2023-04-29T13:14:52.313Z,13.54
2023-04-29T13:17:58.373Z,13.85
2023-04-29T13:21:02.676Z,13.55
2023-04-29T13:24:06.493Z,13.34
2023-04-29T13:27:11.255Z,13.52
2023-04-29T13:30:14.914Z,13.63
2023-04-29T13:33:18.650Z,13.71
2023-04-29T13:36:22.707Z,13.37
2023-04-29T13:39:27.093Z,13.67
2023-04-29T13:45:39.506Z,13.49
2023-04-29T13:55:38.669Z,13.85
2023-04-29T14:04:35.076Z,13.99
2023-04-29T14:07:38.306Z,14.01
2023-04-29T14:10:41.521Z,14.05
2023-04-29T14:13:45.982Z,14.02
2023-04-29T14:16:49.186Z,14.24
2023-04-29T14:19:52.387Z,13.83
2023-04-29T14:22:55.793Z,13.94
2023-04-29T14:26:11.500Z,13.72
2023-04-29T14:29:23.609Z,13.79
2023-04-29T14:32:26.923Z,13.71
2023-04-29T14:35:30.539Z,13.58
2023-04-29T14:38:33.998Z,13.43
2023-04-29T14:41:37.156Z,13.38
2023-04-29T14:44:41.695Z,13.32
2023-04-29T14:47:45.165Z,13.28
2023-04-29T14:50:48.320Z,13.15
2023-04-29T14:53:51.602Z,13.27
2023-04-29T14:56:55.043Z,13.02
2023-04-29T14:59:59.518Z,12.96
2023-04-29T15:03:05.048Z,13.04
2023-04-29T15:06:08.652Z,13.06
2023-04-29T15:09:11.883Z,13.00
2023-04-29T15:12:16.816Z,13.13
2023-04-29T15:15:21.760Z,13.04
2023-04-29T15:18:26.355Z,13.09
2023-04-29T15:21:30.192Z,13.12
2023-04-29T15:24:33.374Z,13.18
2023-04-29T15:27:37.298Z,12.95
2023-04-29T15:34:48.692Z,13.21
2023-04-29T15:37:51.866Z,13.15
2023-04-29T15:41:00.481Z,13.14
2023-04-29T15:44:03.591Z,13.08
2023-04-29T15:47:07.097Z,13.17
2023-04-29T15:50:13.685Z,13.18
2023-04-29T15:53:16.878Z,13.15
2023-04-29T15:56:20.118Z,13.10
2023-04-29T15:59:23.255Z,13.00
2023-04-29T16:02:27.146Z,12.84
2023-04-29T16:05:31.774Z,12.74
2023-04-29T16:08:35.013Z,12.80
2023-04-29T16:11:38.194Z,12.71
2023-04-29T16:14:41.495Z,12.71
2023-04-29T16:17:44.744Z,12.54
2023-04-29T16:20:49.307Z,12.50
2023-04-29T16:23:52.491Z,12.51
2023-04-29T16:26:56.913Z,12.49
2023-04-29T16:30:00.564Z,12.33
2023-04-29T16:33:04.383Z,12.50
2023-04-29T16:36:09.254Z,12.35
2023-04-29T16:39:12.360Z,12.31
2023-04-29T16:42:15.650Z,12.22
2023-04-29T16:45:19.669Z,12.40
2023-04-29T16:48:23.659Z,12.48
2023-04-29T16:51:29.101Z,12.30
2023-04-29T16:54:32.701Z,11.92
2023-04-29T16:57:36.178Z,12.26
2023-04-29T17:00:39.471Z,12.24
2023-04-29T17:03:42.736Z,12.51
2023-04-29T17:06:47.347Z,12.19
2023-04-29T17:09:50.728Z,12.29
2023-04-29T17:12:53.846Z,12.19
2023-04-29T17:15:57.560Z,12.22
2023-04-29T17:19:00.850Z,12.35
2023-04-29T17:22:05.518Z,12.17
2023-04-29T17:25:10.352Z,12.32
2023-04-29T17:28:13.492Z,12.17
2023-04-29T17:31:17.023Z,12.15
2023-04-29T17:34:23.829Z,12.22
2023-04-29T17:37:30.241Z,12.46
2023-04-29T17:40:33.414Z,12.12
2023-04-29T17:43:36.702Z,12.10
2023-04-29T17:46:41.938Z,12.02
2023-04-29T17:49:45.051Z,12.12
2023-04-29T17:52:49.659Z,12.05
2023-04-29T17:55:52.776Z,12.06
2023-04-29T17:58:55.929Z,12.08
2023-04-29T18:01:59.483Z,11.99
2023-04-29T18:05:03.907Z,12.06
2023-04-29T18:08:08.432Z,11.93
2023-04-29T18:11:12.600Z,11.99
2023-04-29T18:14:16.380Z,11.89
2023-04-29T18:17:19.692Z,11.94
2023-04-29T18:20:23.430Z,11.80
2023-04-29T18:23:28.436Z,11.80
2023-04-29T18:26:31.846Z,11.73
2023-04-29T18:29:35.083Z,11.77
2023-04-29T18:32:39.082Z,11.56
2023-04-29T18:35:42.320Z,11.62
2023-04-29T18:38:46.787Z,11.57
2023-04-29T18:41:50.040Z,11.70
2023-04-29T18:44:53.181Z,11.56
2023-04-29T18:47:56.437Z,11.49
2023-04-29T18:51:02.740Z,11.66
2023-04-29T18:54:07.553Z,11.40
2023-04-29T18:57:11.431Z,11.39
2023-04-29T19:00:16.093Z,11.36
2023-04-29T19:03:19.578Z,11.34
2023-04-29T19:06:22.838Z,11.26
2023-04-29T19:09:27.837Z,11.32
2023-04-29T19:12:30.978Z,11.19
2023-04-29T19:15:34.482Z,11.19
2023-04-29T19:18:37.724Z,11.22
2023-04-29T19:21:41.351Z,11.24
2023-04-29T19:24:46.210Z,11.16
2023-04-29T19:27:50.942Z,11.24
2023-04-29T19:30:54.199Z,11.19
2023-04-29T19:33:58.001Z,11.06
2023-04-29T19:37:01.278Z,11.26
2023-04-29T19:40:08.905Z,11.02
2023-04-29T19:43:13.248Z,11.14
2023-04-29T19:46:16.546Z,10.82
2023-04-29T19:49:20.007Z,11.06
2023-04-29T19:52:25.035Z,10.92
2023-04-29T19:55:29.480Z,11.09
2023-04-29T19:58:33.000Z,10.97
2023-04-29T20:01:36.334Z,10.92
2023-04-29T20:04:39.788Z,10.90
2023-04-29T20:07:43.148Z,10.85
2023-04-29T20:10:48.136Z,11.14
2023-04-29T20:13:52.955Z,10.79
2023-04-29T20:16:57.049Z,10.81
2023-04-29T20:20:02.357Z,10.83
2023-04-29T20:23:05.515Z,11.03
2023-04-29T20:26:10.011Z,10.79
2023-04-29T20:29:14.046Z,11.01
2023-04-29T20:32:17.784Z,10.78
2023-04-29T20:35:22.082Z,10.76
2023-04-29T20:38:25.775Z,10.73
2023-04-29T20:41:30.319Z,10.68
2023-04-29T20:44:34.669Z,10.92
2023-04-29T20:47:38.270Z,10.76
2023-04-29T20:50:41.741Z,10.76
2023-04-29T20:53:47.284Z,10.72
2023-04-29T20:56:51.914Z,10.64
2023-04-29T20:59:55.318Z,10.54
2023-04-29T21:02:58.759Z,10.54
2023-04-29T21:06:02.066Z,10.76
2023-04-29T21:09:05.209Z,10.47
2023-04-29T21:12:09.779Z,10.70
2023-04-29T21:15:13.311Z,10.52
2023-04-29T21:18:16.526Z,10.64
2023-04-29T21:21:19.701Z,10.63
2023-04-29T21:24:22.786Z,10.67
2023-04-29T21:27:27.300Z,10.55
2023-04-29T21:30:30.455Z,10.81
2023-04-29T21:34:48.686Z,10.43
2023-04-29T21:37:51.801Z,10.55
2023-04-29T21:40:54.919Z,10.37
2023-04-29T21:43:59.720Z,10.33
2023-04-29T21:47:04.070Z,10.52
2023-04-29T21:50:13.539Z,10.46
2023-04-29T21:53:16.866Z,10.43
2023-04-29T21:56:21.671Z,10.31
2023-04-29T21:59:24.918Z,10.40
2023-04-29T22:02:37.981Z,10.45
2023-04-29T22:05:42.684Z,10.80
2023-04-29T22:08:46.144Z,10.46
2023-04-29T22:11:49.485Z,10.27
2023-04-29T22:14:52.698Z,10.27
2023-04-29T22:17:56.814Z,10.29
2023-04-29T22:21:01.695Z,10.41
2023-04-29T22:24:05.320Z,10.12
2023-04-29T22:27:09.474Z,10.25
2023-04-29T22:30:13.777Z,10.18
2023-04-29T22:33:16.994Z,10.42
2023-04-29T22:36:21.574Z,10.22
2023-04-29T22:39:24.779Z,10.37
2023-04-29T22:42:28.252Z,10.05
2023-04-29T22:45:31.983Z,10.00
2023-04-29T22:48:35.247Z,10.00
2023-04-29T22:51:39.889Z,10.05
2023-04-29T22:54:42.982Z,10.29
2023-04-29T22:57:46.118Z,10.01
2023-04-29T23:00:52.417Z,9.98
2023-04-29T23:03:56.095Z,10.08
2023-04-29T23:07:00.645Z,10.11
2023-04-29T23:10:04.109Z,9.98
2023-04-29T23:13:07.349Z,9.99
2023-04-29T23:16:11.087Z,9.99
2023-04-29T23:19:14.296Z,9.87
2023-04-29T23:22:18.864Z,10.01
2023-04-29T23:25:22.044Z,10.04
2023-04-29T23:28:25.341Z,9.83
2023-04-29T23:31:28.572Z,10.05
2023-04-29T23:34:31.672Z,9.90
2023-04-29T23:37:36.350Z,9.78
2023-04-29T23:40:39.500Z,9.82
2023-04-29T23:43:42.650Z,10.08
2023-04-29T23:46:45.895Z,9.76
2023-04-29T23:49:49.056Z,9.83
2023-04-29T23:52:53.531Z,9.93
2023-04-29T23:55:56.673Z,9.84
2023-04-29T23:58:59.756Z,10.00
